Time;durP1;ratioP1;P1;durP2;ratioP2;P2;SDS_P1;SDS_P2;PMS_P1;PMS_P2;Temp;Humidity;BMP_temperature;BMP_pressure;BME280_temperature;BME280_humidity;BME280_pressure;Samples;Min_cycle;Max_cycle;Signal;HPM_P1;HPM_P2
2022/04/19 00:01:24;;;;;;;3.20;2.40;;;;;;;13.61;39.49;99692.56;4965112;28;20501;-81
2022/04/19 00:03:53;;;;;;;5.88;2.90;;;;;;;13.57;39.27;99693.03;4954880;28;20046;-81
2022/04/19 00:06:20;;;;;;;3.15;2.78;;;;;;;13.55;39.36;99685.19;4951023;28;20150;-81
2022/04/19 00:08:48;;;;;;;3.53;2.42;;;;;;;13.53;39.62;99681.81;4964723;28;20053;-81
2022/04/19 00:11:14;;;;;;;3.88;2.78;;;;;;;13.52;40.04;99682.84;4978628;28;20141;-81
2022/04/19 00:13:42;;;;;;;4.70;2.75;;;;;;;13.52;39.91;99682.84;4968019;28;20043;-81
2022/04/19 00:16:09;;;;;;;4.57;3.10;;;;;;;13.49;40.11;99680.50;4956425;28;20077;-81
2022/04/19 00:18:36;;;;;;;4.13;2.90;;;;;;;13.49;39.64;99680.50;4949494;28;20045;-81
2022/04/19 00:21:03;;;;;;;6.00;2.67;;;;;;;13.44;39.72;99674.78;4959483;28;20051;-81
2022/04/19 00:23:30;;;;;;;3.63;2.60;;;;;;;13.41;39.82;99680.44;4939845;28;20065;-81
2022/04/19 00:25:57;;;;;;;4.55;2.80;;;;;;;13.39;39.61;99677.09;4967082;28;20043;-81
2022/04/19 00:28:29;;;;;;;6.25;2.70;;;;;;;13.32;39.81;99671.53;4952006;28;20049;-81
2022/04/19 00:30:57;;;;;;;5.93;2.70;;;;;;;13.35;39.79;99678.41;4966280;28;20483;-81
2022/04/19 00:33:25;;;;;;;5.63;2.83;;;;;;;13.31;39.70;99685.88;4960858;28;20138;-81
2022/04/19 00:35:52;;;;;;;3.97;2.78;;;;;;;13.27;39.88;99681.84;4961053;28;20641;-81
2022/04/19 00:38:18;;;;;;;5.78;2.75;;;;;;;13.25;39.85;99674.00;4981086;28;21123;-80
2022/04/19 00:40:45;;;;;;;3.95;2.65;;;;;;;13.24;40.02;99674.97;4963016;28;20133;-81
2022/04/19 00:43:12;;;;;;;5.07;2.80;;;;;;;13.24;40.09;99672.31;4947019;28;20084;-81
2022/04/19 00:46:08;;;;;;;4.22;2.72;;;;;;;13.06;41.14;99665.34;4963168;28;20062;-81
2022/04/19 00:48:35;;;;;;;2.90;2.13;;;;;;;13.20;40.55;99667.44;4961300;28;20039;-81
2022/04/19 00:51:04;;;;;;;3.47;2.42;;;;;;;13.20;40.39;99675.44;4974911;28;20055;-81
2022/04/19 00:53:31;;;;;;;2.92;2.63;;;;;;;13.18;40.32;99662.28;4952252;28;20494;-81
2022/04/19 00:56:00;;;;;;;4.38;2.65;;;;;;;13.16;40.40;99653.59;4967130;28;20104;-81
2022/04/19 00:58:27;;;;;;;4.60;2.78;;;;;;;13.14;40.67;99654.75;4965834;28;20051;-81
2022/04/19 01:00:55;;;;;;;4.50;2.45;;;;;;;13.11;40.51;99653.22;4969194;28;20056;-81
2022/04/19 01:03:24;;;;;;;6.38;2.67;;;;;;;13.09;40.53;99655.22;4951963;28;20458;-81
2022/04/19 01:05:53;;;;;;;3.25;2.47;;;;;;;13.08;40.43;99650.03;4979410;28;20466;-81
2022/04/19 01:08:20;;;;;;;4.85;2.40;;;;;;;13.06;40.95;99647.53;4948171;28;20583;-81
2022/04/19 01:10:48;;;;;;;5.70;2.90;;;;;;;13.04;40.52;99642.34;4963292;28;20054;-81
2022/04/19 01:13:35;;;;;;;3.75;2.30;;;;;;;13.00;41.07;99646.34;4980300;28;20049;-81
2022/04/19 01:16:02;;;;;;;3.42;2.85;;;;;;;12.99;40.91;99643.81;4984826;28;20053;-81
2022/04/19 01:18:29;;;;;;;5.75;2.80;;;;;;;12.97;40.93;99643.13;4984548;28;20046;-81
2022/04/19 01:21:04;;;;;;;3.70;2.60;;;;;;;12.93;40.86;99633.78;4982907;28;20057;-81
2022/04/19 01:23:30;;;;;;;4.88;2.85;;;;;;;12.92;40.95;99640.09;4969140;28;20043;-81
2022/04/19 01:25:58;;;;;;;3.80;2.60;;;;;;;12.88;41.15;99639.56;4966008;28;20561;-81
2022/04/19 01:28:26;;;;;;;4.00;2.58;;;;;;;12.87;41.05;99637.06;4968036;28;20038;-81
2022/04/19 01:30:54;;;;;;;4.18;2.80;;;;;;;12.85;40.98;99637.22;4969745;28;20125;-81
2022/04/19 01:33:23;;;;;;;2.95;2.30;;;;;;;12.81;41.02;99631.34;4964175;28;20493;-81
2022/04/19 01:35:53;;;;;;;3.63;2.70;;;;;;;12.79;40.84;99636.00;4962420;28;20061;-81
2022/04/19 01:38:20;;;;;;;4.22;2.85;;;;;;;12.75;40.94;99629.31;4968722;28;20040;-81
2022/04/19 01:40:47;;;;;;;4.28;3.00;;;;;;;12.74;41.29;99634.78;4982766;28;20054;-81
2022/04/19 01:43:49;;;;;;;3.13;2.22;;;;;;;12.68;41.21;99622.94;4910889;28;20502;-80
2022/04/19 01:46:17;;;;;;;3.72;2.80;;;;;;;12.66;41.07;99622.25;4966698;28;20054;-80
2022/04/19 01:48:44;;;;;;;3.53;2.63;;;;;;;12.66;41.39;99619.56;4971423;28;20050;-81
2022/04/19 01:51:14;;;;;;;3.58;2.78;;;;;;;12.65;41.51;99622.41;4971657;28;20053;-80
2022/04/19 01:53:41;;;;;;;4.07;2.67;;;;;;;12.60;41.43;99610.38;4966904;28;20054;-81
2022/04/19 01:56:08;;;;;;;4.68;2.38;;;;;;;12.58;41.23;99623.00;4971979;28;20054;-81
2022/04/19 01:58:53;;;;;;;5.97;2.70;;;;;;;12.56;41.53;99618.84;4970564;28;20054;-81
2022/04/19 02:01:34;;;;;;;3.53;2.40;;;;;;;12.54;41.37;99624.34;4927148;28;20624;-81
2022/04/19 02:04:01;;;;;;;3.42;2.63;;;;;;;12.52;41.42;99617.47;4962260;28;20056;-80
2022/04/19 02:06:30;;;;;;;5.47;2.40;;;;;;;12.49;41.70;99615.97;4964839;28;20056;-81
2022/04/19 02:09:00;;;;;;;5.10;2.50;;;;;;;12.47;41.61;99622.44;4980924;28;20042;-81
2022/04/19 02:11:27;;;;;;;3.22;2.42;;;;;;;12.45;41.51;99622.56;4947651;28;20077;-80
2022/04/19 02:14:16;;;;;;;3.88;2.78;;;;;;;12.41;41.88;99623.03;4938020;28;20165;-81
2022/04/19 02:16:45;;;;;;;4.55;2.55;;;;;;;12.37;41.38;99619.84;4965583;28;20190;-81
2022/04/19 02:19:14;;;;;;;4.88;2.55;;;;;;;12.34;41.59;99617.50;4964346;28;20053;-81
2022/04/19 02:21:41;;;;;;;3.35;2.05;;;;;;;12.29;41.67;99623.28;4995032;28;20043;-80
2022/04/19 02:24:09;;;;;;;3.80;2.20;;;;;;;12.24;41.84;99614.91;4981292;28;20121;-81
2022/04/19 02:26:36;;;;;;;5.75;2.67;;;;;;;12.21;41.90;99625.81;4980569;28;20128;-81
2022/04/19 02:29:03;;;;;;;6.15;2.38;;;;;;;12.19;41.84;99613.66;4965964;28;20046;-81
2022/04/19 02:31:38;;;;;;;4.88;2.47;;;;;;;12.17;42.06;99613.81;4947534;28;20101;-81
2022/04/19 02:34:06;;;;;;;4.38;3.17;;;;;;;12.14;42.16;99606.97;4951406;28;20050;-80
2022/04/19 02:36:35;;;;;;;3.38;2.40;;;;;;;12.12;42.11;99611.63;4967512;28;20108;-81
2022/04/19 02:39:02;;;;;;;5.00;2.97;;;;;;;12.11;42.09;99607.28;4987679;28;20057;-81
2022/04/19 02:41:30;;;;;;;3.83;2.47;;;;;;;12.09;42.46;99605.78;4983420;28;20042;-81
2022/04/19 02:44:01;;;;;;;4.82;2.28;;;;;;;12.04;42.28;99598.22;4955271;28;20073;-81
2022/04/19 02:46:30;;;;;;;2.40;1.85;;;;;;;11.99;42.35;99600.50;4965620;28;20042;-81
2022/04/19 02:49:04;;;;;;;7.88;2.20;;;;;;;11.97;42.27;99605.13;4968390;28;20050;-81
2022/04/19 02:51:32;;;;;;;3.33;2.10;;;;;;;11.96;42.41;99600.81;4982731;28;20046;-81
2022/04/19 02:53:59;;;;;;;3.10;2.30;;;;;;;11.91;42.33;99598.59;4984355;28;20092;-81
2022/04/19 02:56:27;;;;;;;5.95;2.53;;;;;;;11.88;42.25;99606.03;4973884;28;20052;-81
2022/04/19 02:58:53;;;;;;;3.00;2.33;;;;;;;11.84;42.79;99599.31;4971696;28;20446;-81
2022/04/19 03:01:22;;;;;;;3.05;1.70;;;;;;;11.81;42.72;99599.63;4957366;28;20054;-80
2022/04/19 03:03:52;;;;;;;4.22;2.42;;;;;;;11.80;42.96;99596.09;4973895;28;20081;-81
2022/04/19 03:06:18;;;;;;;4.15;2.40;;;;;;;11.79;42.76;99597.09;4970267;28;20517;-81
2022/04/19 03:08:45;;;;;;;4.55;2.47;;;;;;;11.77;42.77;99599.06;4955921;28;20067;-81
2022/04/19 03:11:12;;;;;;;3.13;1.95;;;;;;;11.76;43.04;99584.09;4969094;28;20046;-81
2022/04/19 03:13:39;;;;;;;4.35;2.30;;;;;;;11.76;42.87;99591.25;4970634;28;20049;-81
2022/04/19 03:16:08;;;;;;;3.45;2.33;;;;;;;11.73;42.99;99600.38;4988967;28;20053;-81
2022/04/19 03:18:36;;;;;;;4.30;2.75;;;;;;;11.72;43.34;99604.00;4971151;28;20523;-80
2022/04/19 03:21:02;;;;;;;6.10;2.58;;;;;;;11.69;43.22;99596.31;4952989;28;20506;-81
2022/04/19 03:29:08;;;;;;;4.72;2.67;;;;;;;11.60;43.49;99595.41;4972399;28;20767;-81
2022/04/19 03:31:35;;;;;;;5.45;2.50;;;;;;;11.58;43.58;99583.25;4952066;28;20046;-81
2022/04/19 03:34:06;;;;;;;9.10;3.10;;;;;;;11.55;43.51;99591.47;4971091;28;20431;-81
2022/04/19 03:36:33;;;;;;;5.90;2.60;;;;;;;11.56;43.56;99590.53;4978892;28;20046;-80
2022/04/19 03:39:00;;;;;;;7.30;3.10;;;;;;;11.54;43.37;99584.50;4989094;28;20124;-80
2022/04/19 03:41:27;;;;;;;5.30;2.70;;;;;;;11.53;43.51;99583.69;4986924;28;20097;-80
2022/04/19 03:44:12;;;;;;;4.32;2.25;;;;;;;11.48;43.81;99575.31;5001049;28;20080;-80
2022/04/19 03:49:27;;;;;;;5.20;2.67;;;;;;;11.43;43.67;99575.75;4921486;28;20440;-81
2022/04/19 03:51:54;;;;;;;4.30;2.53;;;;;;;11.40;43.97;99589.34;4967474;28;20053;-80
2022/04/19 03:54:21;;;;;;;4.65;2.35;;;;;;;11.40;43.95;99597.31;4969924;28;20564;-81
2022/04/19 03:56:48;;;;;;;5.22;2.60;;;;;;;11.38;44.03;99591.28;4966415;28;20134;-81
2022/04/19 03:59:15;;;;;;;3.03;2.50;;;;;;;11.37;43.76;99589.63;4965223;28;20047;-81
2022/04/19 04:01:42;;;;;;;4.70;2.50;;;;;;;11.36;44.19;99603.06;4950363;28;20046;-81
2022/04/19 04:04:11;;;;;;;5.40;2.60;;;;;;;11.34;44.17;99594.38;4933071;28;20046;-81
2022/04/19 04:06:38;;;;;;;4.97;2.13;;;;;;;11.31;44.09;99595.53;4965031;28;20135;-81
2022/04/19 04:09:06;;;;;;;5.93;2.47;;;;;;;11.30;44.05;99597.34;4967456;28;20057;-80
2022/04/19 04:11:33;;;;;;;4.50;2.47;;;;;;;11.28;44.32;99596.66;4954644;28;20049;-81
2022/04/19 04:14:26;;;;;;;3.10;2.22;;;;;;;11.24;44.04;99597.09;4937732;28;20486;-81
2022/04/19 04:16:53;;;;;;;3.00;2.30;;;;;;;11.22;44.11;99602.56;4980962;28;20047;-80
2022/04/19 04:19:21;;;;;;;4.32;2.13;;;;;;;11.20;44.21;99598.38;4952439;28;20054;-83
2022/04/19 04:21:49;;;;;;;3.40;2.17;;;;;;;11.18;44.01;99595.84;4981318;28;20460;-81
2022/04/19 04:24:16;;;;;;;3.63;2.90;;;;;;;11.15;44.39;99597.97;4951590;28;20046;-81
2022/04/19 04:26:42;;;;;;;5.93;2.47;;;;;;;11.15;44.31;99612.09;4952403;28;20054;-81
2022/04/19 04:29:12;;;;;;;3.80;2.28;;;;;;;11.11;44.23;99610.69;4985070;28;20445;-81
2022/04/19 04:31:40;;;;;;;3.38;2.40;;;;;;;11.10;44.52;99619.66;4964406;28;20112;-81
2022/04/19 04:34:14;;;;;;;;;;;;;;;10.81;45.04;99619.72;4919811;28;20717;-81
2022/04/19 04:36:41;;;;;;;6.20;2.67;;;;;;;11.02;44.65;99616.88;4961781;28;19975;-83
2022/04/19 04:39:14;;;;;;;3.88;2.20;;;;;;;11.00;44.41;99614.38;4938389;28;20517;-82
2022/04/19 04:42:02;;;;;;;4.03;2.90;;;;;;;10.98;44.38;99611.00;4972568;28;20054;-82
2022/04/19 04:44:30;;;;;;;4.65;2.75;;;;;;;10.98;44.67;99624.28;4966642;28;20047;-82
2022/04/19 04:49:43;;;;;;;3.70;2.55;;;;;;;10.96;44.90;99609.47;4952930;28;20101;-82
2022/04/19 04:52:16;;;;;;;4.43;2.33;;;;;;;10.93;45.04;99613.25;4989726;28;20078;-83
2022/04/19 04:54:43;;;;;;;6.55;2.65;;;;;;;10.93;45.06;99615.09;4953600;28;20451;-82
2022/04/19 04:57:18;;;;;;;4.43;2.95;;;;;;;10.91;44.85;99619.69;4984489;28;20054;-83
2022/04/19 04:59:47;;;;;;;4.70;2.65;;;;;;;10.90;44.96;99618.88;4984230;28;20057;-82
2022/04/19 05:02:14;;;;;;;7.25;2.80;;;;;;;10.89;45.01;99616.34;4969195;28;20101;-83
2022/04/19 05:04:42;;;;;;;3.58;2.33;;;;;;;10.86;45.24;99609.50;4948248;28;20059;-82
2022/04/19 05:07:09;;;;;;;5.65;3.00;;;;;;;10.84;45.29;99614.97;4984160;28;20088;-82
2022/04/19 05:09:44;;;;;;;7.53;2.47;;;;;;;10.85;45.35;99623.78;4980941;28;20053;-83
2022/04/19 05:12:11;;;;;;;9.80;2.80;;;;;;;10.81;45.75;99622.38;4951139;28;20046;-83
2022/04/19 05:14:40;;;;;;;9.98;3.25;;;;;;;10.80;45.90;99623.34;4964986;28;20379;-83
2022/04/19 05:17:07;;;;;;;5.63;2.97;;;;;;;10.79;45.69;99621.69;4955614;28;20046;-83
2022/04/19 05:19:39;;;;;;;4.67;2.67;;;;;;;10.77;45.30;99623.66;4935575;28;20047;-83
2022/04/19 05:22:06;;;;;;;8.20;2.70;;;;;;;10.78;45.59;99620.84;4935290;28;20513;-83
2022/04/19 05:24:33;;;;;;;5.18;2.95;;;;;;;10.80;45.36;99612.72;4950338;28;20054;-81
2022/04/19 05:27:00;;;;;;;3.92;3.00;;;;;;;10.82;45.27;99621.41;4949511;28;20055;-82
2022/04/19 05:29:29;;;;;;;7.10;3.15;;;;;;;10.81;45.40;99612.59;4951830;28;20038;-82
2022/04/19 05:31:55;;;;;;;5.80;2.72;;;;;;;10.79;45.18;99617.22;4950572;28;20089;-82
2022/04/19 05:34:23;;;;;;;4.15;3.22;;;;;;;10.75;45.15;99618.47;4938844;28;20597;-83
2022/04/19 05:36:51;;;;;;;5.90;3.13;;;;;;;10.74;45.30;99619.47;4951198;28;20054;-82
2022/04/19 05:39:18;;;;;;;4.88;2.63;;;;;;;10.75;45.27;99614.97;4976355;28;20066;-82
2022/04/19 05:41:47;;;;;;;5.03;3.13;;;;;;;10.73;45.38;99620.41;4950979;28;20043;-83
2022/04/19 05:44:13;;;;;;;4.30;2.40;;;;;;;10.73;45.57;99620.41;4966152;28;20042;-83
2022/04/19 05:46:40;;;;;;;6.03;2.70;;;;;;;10.75;45.60;99614.97;4970846;28;20049;-82
2022/04/19 05:49:13;;;;;;;4.15;2.88;;;;;;;10.71;45.86;99611.78;4939713;28;20515;-82
2022/04/19 05:51:42;;;;;;;5.68;2.60;;;;;;;10.70;45.78;99618.06;4952492;28;20075;-82
2022/04/19 05:54:09;;;;;;;3.15;2.67;;;;;;;10.70;45.76;99623.38;4968951;28;20053;-82
2022/04/19 05:56:38;;;;;;;4.60;3.13;;;;;;;10.68;46.01;99624.50;4964923;28;20042;-82
2022/04/19 05:59:05;;;;;;;6.72;3.42;;;;;;;10.64;46.08;99615.97;4966866;28;20081;-83
2022/04/19 06:04:52;;;;;;;5.03;2.67;;;;;;;10.65;46.11;99628.25;4965512;28;20049;-82
2022/04/19 06:07:05;;;;;;;7.32;3.22;;;;;;;10.70;46.23;99628.69;4952197;28;20038;-83
2022/04/19 06:09:32;;;;;;;5.75;2.88;;;;;;;10.71;46.36;99629.50;4966133;28;20045;-81
2022/04/19 06:12:00;;;;;;;7.68;3.25;;;;;;;10.75;46.16;99629.09;4952206;28;20054;-84
2022/04/19 06:14:32;;;;;;;7.55;2.92;;;;;;;10.80;46.37;99628.66;4965030;28;20046;-83
2022/04/19 06:16:58;;;;;;;8.18;3.88;;;;;;;10.78;46.69;99628.81;4950632;28;20051;-84
2022/04/19 06:19:27;;;;;;;10.88;3.50;;;;;;;10.77;46.54;99624.47;4981692;28;20134;-83
2022/04/19 06:21:55;;;;;;;5.93;3.00;;;;;;;10.82;46.63;99632.03;4964527;28;20050;-83
2022/04/19 06:24:21;;;;;;;7.65;3.42;;;;;;;10.79;46.87;99619.88;4967567;28;20121;-82
2022/04/19 06:26:48;;;;;;;8.73;3.13;;;;;;;10.77;47.03;99618.34;4981657;28;20551;-83
2022/04/19 06:29:19;;;;;;;8.43;3.35;;;;;;;10.79;47.05;99616.38;4984476;28;20085;-82
2022/04/19 06:31:55;;;;;;;11.65;3.50;;;;;;;10.82;47.09;99610.78;4970869;28;20675;-82
2022/04/19 06:34:28;;;;;;;6.80;3.85;;;;;;;10.83;47.13;99615.09;4949790;28;20061;-82
2022/04/19 06:37:01;;;;;;;7.97;3.30;;;;;;;10.85;46.82;99615.81;4968853;28;20046;-82
2022/04/19 06:39:28;;;;;;;7.60;3.20;;;;;;;10.82;47.42;99614.28;4950489;28;20061;-81
2022/04/19 06:41:56;;;;;;;4.35;3.53;;;;;;;10.86;47.44;99609.50;4957371;28;20043;-82
2022/04/19 06:44:26;;;;;;;6.63;3.40;;;;;;;10.90;47.37;99605.59;4960801;28;20050;-82
2022/04/19 06:47:05;;;;;;;12.90;3.30;;;;;;;10.87;47.49;99605.88;4934693;28;20054;-83
2022/04/19 06:49:34;;;;;;;8.80;3.75;;;;;;;10.94;47.75;99614.09;4948085;28;20552;-82
2022/04/19 06:52:05;;;;;;;13.07;3.70;;;;;;;10.94;47.79;99601.66;4950945;28;20058;-84
2022/04/19 06:54:34;;;;;;;6.80;3.40;;;;;;;11.02;47.79;99608.91;4969343;28;20486;-82
2022/04/19 06:57:01;;;;;;;6.97;3.70;;;;;;;10.99;48.36;99612.69;4972022;28;22405;-82
2022/04/19 06:59:28;;;;;;;9.25;5.50;;;;;;;11.00;48.11;99611.72;4965900;28;20046;-82
2022/04/19 07:01:57;;;;;;;5.82;3.60;;;;;;;11.01;48.17;99615.19;4986062;28;20039;-83
2022/04/19 07:04:33;;;;;;;7.85;4.72;;;;;;;11.02;48.67;99611.56;4945501;28;20051;-83
2022/04/19 07:07:04;;;;;;;8.52;3.45;;;;;;;11.08;48.46;99611.81;4965923;28;20132;-83
2022/04/19 07:09:30;;;;;;;9.55;3.95;;;;;;;11.14;48.74;99605.09;4969362;28;20042;-82
2022/04/19 07:11:59;;;;;;;6.65;3.97;;;;;;;11.19;48.48;99600.16;4952732;28;20630;-83
2022/04/19 07:14:30;;;;;;;5.57;3.97;;;;;;;11.16;49.07;99599.63;4955498;28;20057;-83
2022/04/19 07:16:58;;;;;;;6.60;3.88;;;;;;;11.23;49.07;99603.41;4983134;28;20043;-84
2022/04/19 07:26:37;;;;;;;5.55;4.28;;;;;;;11.25;49.04;99606.75;4982128;28;20457;-84
2022/04/19 07:28:02;;;;;;;6.63;4.15;;;;;;;11.18;50.16;99603.81;4978500;28;20536;-82
2022/04/19 07:30:40;;;;;;;8.32;4.07;;;;;;;11.35;48.60;99596.91;4933999;28;20047;-82
2022/04/19 07:33:07;;;;;;;8.32;4.25;;;;;;;11.37;48.45;99604.72;4954237;28;20053;-81
2022/04/19 07:35:38;;;;;;;8.60;4.53;;;;;;;11.44;48.19;99596.00;4950100;28;20054;-84
2022/04/19 07:38:05;;;;;;;6.60;4.93;;;;;;;11.46;48.03;99596.72;4971460;28;20507;-85
2022/04/19 07:40:59;;;;;;;7.72;4.80;;;;;;;11.55;48.04;99599.47;4947839;28;20410;-82
2022/04/19 07:43:27;;;;;;;10.15;5.40;;;;;;;11.55;47.63;99596.81;4984310;28;20112;-81
2022/04/19 07:45:53;;;;;;;7.28;4.95;;;;;;;11.56;47.67;99593.19;4949781;28;20133;-84
2022/04/19 07:48:20;;;;;;;6.15;4.68;;;;;;;11.60;48.03;99587.41;4971092;28;20058;-83
2022/04/19 07:50:47;;;;;;;8.23;4.75;;;;;;;11.66;48.26;99584.16;4974429;28;20085;-84
2022/04/19 07:53:14;;;;;;;9.45;4.53;;;;;;;11.70;48.73;99590.00;4956965;28;20129;-83
2022/04/19 07:55:41;;;;;;;6.03;4.22;;;;;;;11.70;49.34;99580.22;4963299;28;20070;-84
2022/04/19 07:58:08;;;;;;;9.57;4.60;;;;;;;11.72;48.52;99594.19;4985054;28;20493;-84
2022/04/19 08:00:36;;;;;;;8.27;4.90;;;;;;;11.74;48.12;99580.75;4937808;28;20521;-83
2022/04/19 08:03:05;;;;;;;7.88;4.65;;;;;;;11.76;48.17;99581.44;4953059;28;20387;-83
2022/04/19 08:05:32;;;;;;;6.70;4.03;;;;;;;11.77;48.71;99576.94;4948900;28;20437;-83
2022/04/19 08:07:59;;;;;;;7.72;4.82;;;;;;;11.83;48.63;99576.34;4984550;28;20058;-82
2022/04/19 08:10:26;;;;;;;8.88;4.85;;;;;;;11.81;47.66;99570.34;4954543;28;20046;-83
2022/04/19 08:12:53;;;;;;;5.93;4.88;;;;;;;11.84;47.24;99576.19;4986154;28;20042;-83
2022/04/19 08:15:20;;;;;;;9.98;5.45;;;;;;;11.89;46.92;99575.78;4953420;28;20066;-83
2022/04/19 08:17:47;;;;;;;8.80;5.50;;;;;;;12.00;47.71;99572.06;4972241;28;20053;-82
2022/04/19 08:20:14;;;;;;;8.07;5.07;;;;;;;11.96;47.41;99568.88;4954897;28;20062;-83
2022/04/19 08:22:42;;;;;;;9.07;5.07;;;;;;;12.01;47.49;99568.41;4968486;28;20046;-83
2022/04/19 08:25:14;;;;;;;6.82;4.82;;;;;;;12.03;47.26;99563.78;4982241;28;20050;-84
2022/04/19 08:27:46;;;;;;;7.18;4.55;;;;;;;12.07;47.09;99565.97;4952465;28;20046;-83
2022/04/19 08:30:17;;;;;;;7.90;5.13;;;;;;;12.08;47.43;99567.66;4971293;28;20050;-84
2022/04/19 08:32:47;;;;;;;8.38;4.72;;;;;;;12.15;47.42;99560.72;4953167;28;20057;-82
2022/04/19 08:35:47;;;;;;;7.60;5.10;;;;;;;12.13;47.97;99560.03;4956638;28;20053;-83
2022/04/19 08:38:47;;;;;;;9.07;4.80;;;;;;;12.16;47.75;99559.75;4936933;28;20047;-83
2022/04/19 08:41:20;;;;;;;8.32;4.57;;;;;;;12.20;47.90;99552.28;4952044;28;20434;-83
2022/04/19 08:43:52;;;;;;;9.20;5.20;;;;;;;12.24;48.26;99550.19;4995823;28;20093;-82
2022/04/19 08:46:19;;;;;;;8.65;5.20;;;;;;;12.25;47.67;99547.34;4968621;28;20049;-84
2022/04/19 08:48:48;;;;;;;7.88;5.13;;;;;;;12.26;47.37;99546.38;4985565;28;20076;-83
2022/04/19 08:51:15;;;;;;;10.07;4.70;;;;;;;12.34;47.04;99537.63;4987407;28;20049;-82
2022/04/19 08:59:14;;;;;;;9.00;4.93;;;;;;;12.40;46.94;99544.16;4971038;28;20047;-83
2022/04/19 09:01:41;;;;;;;7.28;4.57;;;;;;;12.38;47.34;99546.94;4969758;28;20042;-82
2022/04/19 09:04:34;;;;;;;7.97;5.25;;;;;;;12.25;47.59;99547.34;4983231;28;20046;-82
2022/04/19 09:07:02;;;;;;;8.68;5.55;;;;;;;12.38;47.31;99545.13;4913560;28;20038;-81
2022/04/19 09:09:32;;;;;;;9.98;5.35;;;;;;;12.46;46.95;99536.34;4985086;28;20052;-83
2022/04/19 09:12:10;;;;;;;11.68;5.80;;;;;;;12.37;46.86;99535.47;4938715;28;20046;-82
2022/04/19 09:14:58;;;;;;;14.38;5.95;;;;;;;12.32;46.75;99531.59;4966760;28;20044;-82
2022/04/19 09:17:33;;;;;;;9.68;5.60;;;;;;;12.35;46.14;99529.47;4937571;28;20046;-82
2022/04/19 09:20:15;;;;;;;12.95;5.57;;;;;;;12.41;47.63;99532.50;4957797;28;20046;-82
2022/04/19 09:22:43;;;;;;;10.55;5.45;;;;;;;12.47;47.03;99530.06;4954623;28;20489;-83
2022/04/19 09:25:26;;;;;;;10.70;5.85;;;;;;;12.47;46.73;99527.38;4971097;28;20054;-83
2022/04/19 09:27:57;;;;;;;10.55;5.78;;;;;;;12.50;46.66;99523.59;4947499;28;20069;-81
2022/04/19 09:30:31;;;;;;;10.00;6.10;;;;;;;12.50;46.43;99521.75;4970523;28;20042;-84
2022/04/19 09:33:10;;;;;;;11.73;5.72;;;;;;;12.45;46.08;99521.38;4968217;28;20050;-85
2022/04/19 09:35:54;;;;;;;11.20;6.05;;;;;;;12.42;45.77;99516.38;4971114;28;20126;-83
2022/04/19 09:38:43;;;;;;;10.38;6.43;;;;;;;12.40;44.59;99517.53;4937253;28;20481;-83
2022/04/19 09:41:14;;;;;;;9.50;5.50;;;;;;;12.53;45.01;99515.28;4946266;28;20053;-84
2022/04/19 09:44:07;;;;;;;13.80;6.03;;;;;;;12.48;44.12;99512.25;4949188;28;20038;-82
2022/04/19 09:46:36;;;;;;;9.60;5.93;;;;;;;12.62;44.60;99505.50;4948193;28;20134;-82
2022/04/19 09:49:03;;;;;;;11.02;6.18;;;;;;;12.65;44.57;99507.88;4976766;28;20050;-83
2022/04/19 09:51:31;;;;;;;12.25;6.40;;;;;;;12.68;44.04;99511.03;4984724;28;20042;-83
2022/04/19 09:53:58;;;;;;;11.68;6.57;;;;;;;12.83;43.89;99503.31;4970137;28;20101;-83
2022/04/19 09:56:36;;;;;;;11.10;6.22;;;;;;;12.75;44.47;99496.09;4979482;28;20130;-82
2022/04/19 09:59:15;;;;;;;10.25;5.78;;;;;;;12.78;44.30;99498.44;4980983;28;20043;-82
2022/04/19 10:10:02;;;;;;;11.93;5.47;;;;;;;12.79;43.26;99494.78;4924186;28;20468;-82
2022/04/19 10:12:31;;;;;;;9.45;5.45;;;;;;;12.82;43.30;99489.16;4978324;28;20062;-82
2022/04/19 10:14:59;;;;;;;7.50;5.03;;;;;;;12.84;43.78;99488.97;4983185;28;20050;-82
2022/04/19 10:17:28;;;;;;;9.50;5.93;;;;;;;12.92;42.95;99490.84;4965315;28;20047;-82
2022/04/19 10:19:59;;;;;;;11.55;6.03;;;;;;;12.93;42.53;99485.38;4969263;28;20474;-82
2022/04/19 10:22:27;;;;;;;10.10;5.88;;;;;;;12.91;42.64;99479.34;4966822;28;20522;-83
2022/04/19 10:24:55;;;;;;;12.23;6.78;;;;;;;13.04;42.04;99481.59;4962594;28;20070;-81
2022/04/19 10:27:30;;;;;;;10.43;5.43;;;;;;;12.90;42.11;99483.03;4965414;28;20046;-81
2022/04/19 10:29:57;;;;;;;10.25;6.13;;;;;;;13.02;42.13;99475.56;4985151;28;20050;-82
2022/04/19 10:32:33;;;;;;;11.45;5.63;;;;;;;12.98;42.09;99468.91;4964759;28;20536;-82
2022/04/19 10:35:02;;;;;;;7.68;5.25;;;;;;;13.04;43.20;99470.91;4936495;28;20045;-82
2022/04/19 10:37:29;;;;;;;9.63;6.25;;;;;;;13.12;42.86;99468.28;4984099;28;20043;-83
2022/04/19 10:40:03;;;;;;;8.48;5.18;;;;;;;13.10;42.68;99456.97;4971461;28;20046;-82
2022/04/19 10:42:33;;;;;;;10.02;5.57;;;;;;;13.18;43.33;99454.31;4960819;28;20070;-83
2022/04/19 10:45:15;;;;;;;11.45;6.53;;;;;;;13.20;42.88;99460.34;4961156;28;20125;-83
2022/04/19 10:47:54;;;;;;;10.93;6.53;;;;;;;13.15;44.30;99453.78;4951895;28;20485;-82
2022/04/19 10:50:36;;;;;;;9.80;5.88;;;;;;;13.18;41.57;99454.31;4981715;28;20069;-83
2022/04/19 10:53:05;;;;;;;12.13;6.70;;;;;;;13.28;42.03;99448.03;4948734;28;20067;-82
2022/04/19 10:55:34;;;;;;;12.43;6.13;;;;;;;13.30;42.02;99440.69;4966350;28;20517;-83
2022/04/19 10:58:09;;;;;;;8.95;5.47;;;;;;;13.28;41.48;99440.03;4990208;28;20061;-83
2022/04/19 11:00:40;;;;;;;12.02;6.20;;;;;;;13.36;41.70;99448.91;4955472;28;20057;-82
2022/04/19 11:03:34;;;;;;;10.50;6.03;;;;;;;13.31;41.88;99435.22;4952406;28;20057;-83
2022/04/19 11:06:03;;;;;;;9.48;6.40;;;;;;;13.35;41.79;99425.88;4983841;28;20413;-85
2022/04/19 11:08:33;;;;;;;7.40;4.90;;;;;;;13.42;42.17;99432.22;4991013;28;20039;-84
2022/04/19 11:11:06;;;;;;;8.70;5.60;;;;;;;13.42;41.26;99434.06;4987887;28;20070;-83
2022/04/19 11:13:37;;;;;;;9.35;5.13;;;;;;;13.42;41.50;99426.91;4988666;28;20042;-82
2022/04/19 11:16:04;;;;;;;7.93;4.82;;;;;;;13.50;41.55;99431.41;4941626;28;20132;-84
2022/04/19 11:18:36;;;;;;;9.85;5.60;;;;;;;13.48;41.97;99430.72;4987408;28;20046;-84
2022/04/19 11:21:48;;;;;;;8.57;5.35;;;;;;;13.37;42.21;99418.56;4968258;28;20026;-82
2022/04/19 11:25:07;;;;;;;8.80;5.15;;;;;;;13.41;41.74;99414.56;4920898;28;20054;-84
2022/04/19 11:27:53;;;;;;;8.90;5.07;;;;;;;13.39;41.74;99413.06;4901032;28;20057;-83
2022/04/19 11:30:24;;;;;;;9.18;4.97;;;;;;;13.51;41.96;99406.44;4985187;28;20066;-84
2022/04/19 11:32:53;;;;;;;7.53;5.03;;;;;;;13.56;42.27;99406.75;4989223;28;20100;-85
2022/04/19 11:35:21;;;;;;;11.95;4.93;;;;;;;13.60;42.43;99402.75;4988390;28;20545;-82
2022/04/19 11:37:48;;;;;;;8.52;5.90;;;;;;;13.67;42.20;99402.94;4988217;28;20054;-84
2022/04/19 11:48:47;;;;;;;7.47;4.60;;;;;;;13.70;41.70;99383.09;4958339;28;20053;-83
2022/04/19 11:51:15;;;;;;;9.73;5.63;;;;;;;13.76;41.15;99380.56;4987024;28;20042;-82
2022/04/19 11:53:45;;;;;;;10.10;5.13;;;;;;;13.76;40.95;99379.72;4982205;28;21194;-84
2022/04/19 11:56:12;;;;;;;13.38;5.30;;;;;;;13.83;40.77;99378.06;4969893;28;20042;-83
2022/04/19 11:58:42;;;;;;;8.27;4.18;;;;;;;13.79;41.29;99374.91;4985515;28;20043;-82
2022/04/19 12:01:10;;;;;;;6.18;3.97;;;;;;;13.84;41.08;99382.38;4968418;28;20046;-83
2022/04/19 12:03:39;;;;;;;7.32;4.60;;;;;;;13.86;40.87;99377.72;4982873;28;20062;-83
2022/04/19 12:06:09;;;;;;;7.15;4.53;;;;;;;13.89;40.14;99374.72;4966486;28;20067;-82
2022/04/19 12:08:41;;;;;;;8.20;5.03;;;;;;;13.94;40.00;99380.38;4983227;28;20043;-83
2022/04/19 12:11:15;;;;;;;8.23;4.75;;;;;;;13.97;39.86;99368.53;4984707;28;20150;-83
2022/04/19 12:13:52;;;;;;;7.03;4.20;;;;;;;13.95;40.13;99367.91;4953969;28;20050;-83
2022/04/19 12:16:29;;;;;;;7.05;4.53;;;;;;;13.93;39.83;99368.06;4934950;28;20069;-81
2022/04/19 12:19:02;;;;;;;6.20;4.15;;;;;;;14.00;39.94;99362.88;4997592;28;20494;-81
2022/04/19 12:21:42;;;;;;;8.65;4.55;;;;;;;14.01;40.57;99351.19;4969778;28;20133;-80
2022/04/19 12:24:24;;;;;;;7.65;4.35;;;;;;;14.03;38.99;99354.53;4990606;28;20038;-82
2022/04/19 12:27:06;;;;;;;5.65;3.60;;;;;;;14.10;39.14;99347.50;4986118;28;20056;-82
2022/04/19 12:29:33;;;;;;;7.32;3.40;;;;;;;14.20;39.94;99353.50;4983218;28;20089;-80
2022/04/19 12:32:01;;;;;;;5.60;3.42;;;;;;;14.26;39.38;99346.63;4983447;28;20140;-80